METAR Data
IDs: Format: Raw Decoded Include TAF

Data at: 1439 UTC 12 Dec 2018

PAEN 121353Z AUTO 14008KT 10SM OVC055 M04/M07 A2898 RMK AO2 SLP818 T10441067 TSNO
PAEN 121253Z AUTO 14008KT 10SM OVC047 M04/M07 A2897 RMK AO2 SLP813 T10391067 TSNO
PAEN 121153Z AUTO 17003KT 10SM OVC034 M04/M07 A2896 RMK AO2 SLP810 60000 70005 T10391072 11022 21044 53014 TSNO
PAEN 121053Z AUTO 16008KT 10SM BKN040 OVC060 M04/M07 A2895 RMK AO2 SLP805 T10391072 TSNO
PAEN 120953Z AUTO 16008KT 10SM OVC065 M04/M07 A2893 RMK AO2 SLP799 T10441067 TSNO
PAEN 120853Z AUTO 16005KT 10SM BKN049 OVC065 M04/M06 A2892 RMK AO2 SLP796 60000 T10391061 400001039 51018 TSNO
PAEN 120753Z AUTO 17005KT 10SM OVC048 M03/M06 A2891 RMK AO2 SLP791 T10331056 TSNO
PAEN 120653Z AUTO 16005KT 10SM OVC042 M03/M05 A2889 RMK AO2 SNB09E20 SLP783 P0000 T10331050 TSNO
PAEN 120553Z AUTO 16003KT 10SM OVC042 M03/M05 A2887 RMK AO2 SLP778 60001 T10281050 11006 21028 53016 TSNO
PAEN 120453Z 14007KT 10SM OVC065 M03/M04 A2885 RMK AO2 SNE17 SLP771 P0000 T10281039
PAEN 120353Z 10004KT 4SM -SN BR OVC033 M03/M04 A2884 RMK AO2 SLP768 P0000 T10281039
PAEN 120350Z 12004KT 4SM -SN BR OVC031 M03/M04 A2884 RMK AO2 P0000
PAEN 120253Z 00000KT 1 1/2SM -SN BR BKN008 OVC018 M02/M03 A2882 RMK AO2 SLP762 P0000 60001 T10221033 53033
PAEN 120224Z 26010KT 1 1/4SM -SN BR BKN006 BKN011 OVC018 M02/M02 A2880 RMK AO2 P0000 T10221022
PAEN 120201Z 23011KT 2SM -SN BR FEW008 BKN028 OVC038 M02/M03 A2878 RMK AO2 P0000 T10171028
PAEN 120153Z 20010KT 4SM -SN BR FEW008 OVC038 M02/M03 A2878 RMK AO2 SLP746 P0000 T10171028
PAEN 120053Z 17016KT 1/2SM -SN FZFG BKN011 OVC017 M02/M03 A2876 RMK AO2 SNB24 SLP739 P0001 T10171028
PAEN 120046Z 18013KT 1SM -SN BR OVC013 M02/M03 A2875 RMK AO2 SNB24 P0000 T10171028
PAEN 120030Z 16013KT 2SM -SN BR FEW015 OVC021 M01/M03 A2874 RMK AO2 SNB24 P0000 T10111028
PAEN 112353Z 16015G22KT 10SM FEW026 OVC033 M01/M02 A2873 RMK AO2 SNE45 SLP729 P0000 60004 T10061022 10000 21011 53012
PAEN 112328Z 16012KT 3SM -SN BR FEW010 BKN026 OVC034 00/M01 A2872 RMK AO2 P0000 T00001006
PAEN 112313Z 16014KT 3SM -SN BR FEW008 OVC032 00/M01 A2871 RMK AO2 P0000 T00001006
PAEN 112253Z 15009KT 2SM -SN BR FEW004 OVC015 00/M01 A2870 RMK AO2 SLP722 P0002 T00001006
PAEN 112248Z 15009KT 1 1/4SM -SN BR FEW004 OVC013 00/00 A2870 RMK AO2 P0002
PAEN 112153Z 13005KT 3/4SM -SN BR VV015 M01/M01 A2869 RMK AO2 SLP718 P0002 T10061006
PAEN 112146Z 13004KT 3/4SM -SN BR VV016 M01/M01 A2869 RMK AO2 P0001 T10061006
PAEN 112137Z 14005KT 1SM -SN BR VV017 M01/M01 A2869 RMK AO2 P0001 T10061006
PAEN 112053Z 13005KT 2SM -SN BR OVC037 M01/M01 A2867 RMK AO2 SLP712 P0000 60000 T10061006 51016
PAEN 112011Z 14005KT 3SM -SN BR BKN047 OVC060 M01/M01 A2867 RMK AO2 P0000 T10061006
PAEN 111953Z 15005KT 2SM -SN BR OVC034 M01/M01 A2866 RMK AO2 SNB1856 SLP708 P0000 T10061011
PAEN 111942Z 15006KT 2SM -SN BR OVC028 M01/M01 A2866 RMK AO2 SNB1856 P0000 T10061011
PAEN 111929Z 16006KT 2SM -SN BR OVC030 M01/M01 A2866 RMK AO2 SNB1856 P0000 T10061011
PAEN 111921Z 14006KT 3SM -SN BR OVC030 M01/M01 A2865 RMK AO2 SNB1856 P0000 T10061011
PAEN 111915Z 14007KT 2SM -SN BR OVC032 M01/M01 A2865 RMK AO2 SNB1856 P0000 T10061011
PAEN 111853Z 14005KT 10SM OVC047 M01/M01 A2865 RMK AO2 SNE39 SLP702 P0000 T10111011
PAEN 111753Z 14007KT 5SM -SN BR OVC055 M01/M01 A2863 RMK AO2 SNB12 SLP696 P0000 60000 T10111011 10000 21028 53019
PAEN 111653Z 16006KT 10SM FEW055 OVC075 M01/M01 A2861 RMK AO2 SLP689 T10061011
PAEN 111553Z 16007KT 10SM OVC060 M01/M02 A2858 RMK AO2 SLP681 T10111017
PAEN 111513Z AUTO 17005KT 10SM SCT009 OVC060 M01/M01 A2857 RMK AO2 T10061011 TSNO
PAEN 111505Z AUTO 18006KT 10SM BKN009 BKN015 OVC060 00/M01 A2857 RMK AO2 T00001011 TSNO
PAEN 111453Z AUTO 20007KT 10SM FEW010 OVC060 00/M01 A2857 RMK AO2 SLP677 T00001011 53008 TSNO
PAEN 111353Z AUTO 20004KT 10SM OVC100 M02/M03 A2856 RMK AO2 SLP673 T10171028 TSNO
PAEN 111253Z AUTO 23003KT 10SM OVC110 M02/M03 A2855 RMK AO2 SLP671 T10221033 TSNO
PAEN 111153Z AUTO 19003KT 10SM OVC085 M02/M04 A2855 RMK AO2 SLP669 T10221039 10000 21028 55003 TSNO
PAEN 111053Z AUTO 15005KT 10SM OVC085 M02/M04 A2854 RMK AO2 SLP667 T10221039 TSNO
PAEN 110953Z AUTO 17006KT 10SM OVC085 M02/M04 A2854 RMK AO2 SLP668 T10221044 TSNO
PAEN 110853Z AUTO 12003KT 10SM OVC070 M01/M04 A2856 RMK AO2 SLP672 T10111044 400001028 56008 TSNO
PAEN 110753Z AUTO 04008KT 10SM OVC060 M01/M04 A2856 RMK AO2 SLP672 T10061039 TSNO
PAEN 110653Z AUTO 03016G24KT 10SM OVC055 00/M04 A2856 RMK AO2 SLP675 T00001044 TSNO
PAEN 110553Z 03019G23KT 10SM BKN070 OVC085 M01/M05 A2858 RMK AO2 SLP679 T10061050 11006 21017 56027
PAEN 110453Z 03019G26KT 10SM BKN110 M01/M06 A2860 RMK AO2 PK WND 02026/0445 SLP686 T10061056
PAEN 110353Z 02014G24KT 10SM CLR M01/M05 A2863 RMK AO2 SLP697 T10111050
PAEN 110253Z 03017G23KT 10SM OVC110 M01/M04 A2866 RMK AO2 PK WND 03026/0154 SLP706 T10111044 56039